createdAt,value
2022-10-16T00:01:30.767Z,99.90
2022-10-16T00:04:00.162Z,99.90
2022-10-16T00:06:28.939Z,99.90
2022-10-16T00:08:56.694Z,99.90
2022-10-16T00:11:29.886Z,99.90
2022-10-16T00:13:58.375Z,99.90
2022-10-16T00:16:26.179Z,99.90
2022-10-16T00:18:53.641Z,99.90
2022-10-16T00:21:23.977Z,99.90
2022-10-16T00:24:00.009Z,99.90
2022-10-16T00:26:29.473Z,99.90
2022-10-16T00:28:57.412Z,99.90
2022-10-16T00:31:25.635Z,99.90
2022-10-16T00:33:55.421Z,99.90
2022-10-16T00:36:25.555Z,99.90
2022-10-16T00:38:55.616Z,99.90
2022-10-16T00:41:25.573Z,99.90
2022-10-16T00:43:54.117Z,99.90
2022-10-16T00:46:22.753Z,99.90
2022-10-16T00:49:05.291Z,99.90
2022-10-16T00:51:41.420Z,99.90
2022-10-16T00:54:15.228Z,99.90
2022-10-16T00:56:44.571Z,99.90
2022-10-16T00:59:17.152Z,99.90
2022-10-16T01:01:44.634Z,99.90
2022-10-16T01:04:12.064Z,99.90
2022-10-16T01:06:57.958Z,99.90
2022-10-16T01:09:31.100Z,99.90
2022-10-16T01:12:03.609Z,99.90
2022-10-16T01:14:44.342Z,99.90
2022-10-16T01:17:29.464Z,99.90
2022-10-16T01:19:56.721Z,99.90
2022-10-16T01:22:32.940Z,99.90
2022-10-16T01:25:06.312Z,99.90
2022-10-16T01:27:36.953Z,99.90
2022-10-16T01:30:24.138Z,99.90
2022-10-16T01:32:58.229Z,99.90
2022-10-16T01:35:34.659Z,99.90
2022-10-16T01:38:11.669Z,99.90
2022-10-16T01:40:43.416Z,99.90
2022-10-16T01:43:16.758Z,99.90
2022-10-16T01:45:47.403Z,99.90
2022-10-16T01:48:18.504Z,99.90
2022-10-16T01:51:00.642Z,99.90
2022-10-16T01:53:28.596Z,99.90
2022-10-16T01:55:58.935Z,99.90
2022-10-16T01:58:35.512Z,99.90
2022-10-16T02:01:05.329Z,99.90
2022-10-16T02:03:38.610Z,99.90
2022-10-16T02:06:05.935Z,99.90
2022-10-16T02:08:34.596Z,99.90
2022-10-16T02:11:02.748Z,99.90
2022-10-16T02:13:33.564Z,99.90
2022-10-16T02:16:00.859Z,99.90
2022-10-16T02:18:31.982Z,99.90
2022-10-16T02:21:24.570Z,99.90
2022-10-16T02:24:23.560Z,99.90
2022-10-16T02:26:59.226Z,99.90
2022-10-16T02:29:27.684Z,99.90
2022-10-16T02:32:04.084Z,99.90
2022-10-16T02:34:33.974Z,99.90
2022-10-16T02:37:04.523Z,99.90
2022-10-16T02:39:32.616Z,99.90
2022-10-16T02:42:00.123Z,99.90
2022-10-16T02:44:27.630Z,99.90
2022-10-16T02:46:54.986Z,99.90
2022-10-16T02:49:23.057Z,99.90
2022-10-16T02:51:50.630Z,99.90
2022-10-16T02:54:17.959Z,99.90
2022-10-16T02:56:45.333Z,99.90
2022-10-16T02:59:12.647Z,99.90
2022-10-16T03:01:40.002Z,99.90
2022-10-16T03:04:07.379Z,99.90
2022-10-16T03:06:35.714Z,99.90
2022-10-16T03:09:03.139Z,99.90
2022-10-16T03:11:30.510Z,99.90
2022-10-16T03:14:00.905Z,99.90
2022-10-16T03:16:28.245Z,99.90
2022-10-16T03:18:55.576Z,99.90
2022-10-16T03:21:22.955Z,99.90
2022-10-16T03:23:50.304Z,99.90
2022-10-16T03:26:17.626Z,99.90
2022-10-16T03:28:44.942Z,99.90
2022-10-16T03:31:13.473Z,99.90
2022-10-16T03:33:40.724Z,99.90
2022-10-16T03:36:08.025Z,99.90
2022-10-16T03:38:35.501Z,99.90
2022-10-16T03:41:02.973Z,99.90
2022-10-16T03:43:30.261Z,99.90
2022-10-16T03:45:57.608Z,99.90
2022-10-16T03:48:24.985Z,99.90
2022-10-16T03:50:52.729Z,99.90
2022-10-16T03:53:20.165Z,99.90
2022-10-16T03:55:47.515Z,99.90
2022-10-16T03:58:15.103Z,99.90
2022-10-16T04:00:48.664Z,99.90
2022-10-16T04:03:16.108Z,99.90
2022-10-16T04:05:43.445Z,99.90
2022-10-16T04:08:10.913Z,99.90
2022-10-16T04:10:38.154Z,99.90
2022-10-16T04:13:05.380Z,99.90
2022-10-16T04:15:32.640Z,99.90
2022-10-16T04:17:59.957Z,99.90
2022-10-16T04:20:27.411Z,99.90
2022-10-16T04:22:54.681Z,99.90
2022-10-16T04:25:22.012Z,99.90
2022-10-16T04:27:53.907Z,99.90
2022-10-16T04:30:22.837Z,99.90
2022-10-16T04:32:53.843Z,99.90
2022-10-16T04:35:22.331Z,99.90
2022-10-16T04:37:52.503Z,99.90
2022-10-16T04:40:19.858Z,99.90
2022-10-16T04:42:47.193Z,99.90
2022-10-16T04:45:16.470Z,99.90
2022-10-16T04:47:44.953Z,99.90
2022-10-16T04:50:12.313Z,99.90
2022-10-16T04:52:39.883Z,99.90
2022-10-16T04:55:08.056Z,99.90
2022-10-16T04:57:35.489Z,99.90
2022-10-16T05:00:04.120Z,99.90
2022-10-16T05:02:31.500Z,99.90
2022-10-16T05:04:58.803Z,99.90
2022-10-16T05:07:26.592Z,99.90
2022-10-16T05:09:54.633Z,99.90
2022-10-16T05:12:24.819Z,99.90
2022-10-16T05:14:52.256Z,99.90
2022-10-16T05:17:19.569Z,99.90
2022-10-16T05:19:46.937Z,99.90
2022-10-16T05:22:14.251Z,99.90
2022-10-16T05:24:41.616Z,99.90
2022-10-16T05:27:08.971Z,99.90
2022-10-16T05:29:36.260Z,99.90
2022-10-16T05:32:04.012Z,99.90
2022-10-16T05:34:31.390Z,99.90
2022-10-16T05:36:58.761Z,99.90
2022-10-16T05:39:26.240Z,99.90
2022-10-16T05:41:53.532Z,99.90
2022-10-16T05:44:21.574Z,99.90
2022-10-16T05:46:49.025Z,99.90
2022-10-16T05:49:16.596Z,99.90
2022-10-16T05:51:43.925Z,99.90
2022-10-16T05:54:11.488Z,99.90
2022-10-16T05:56:38.838Z,99.90
2022-10-16T05:59:06.522Z,99.90
2022-10-16T06:01:34.641Z,99.90
2022-10-16T06:04:02.798Z,99.90
2022-10-16T06:06:30.810Z,99.90
2022-10-16T06:08:58.552Z,99.90
2022-10-16T06:11:29.164Z,99.90
2022-10-16T06:14:03.584Z,99.90
2022-10-16T06:16:33.822Z,99.90
2022-10-16T06:19:01.663Z,99.90
2022-10-16T06:21:29.904Z,99.90
2022-10-16T06:23:58.133Z,99.90
2022-10-16T06:26:30.449Z,99.90
2022-10-16T06:28:59.951Z,99.90
2022-10-16T06:31:31.238Z,99.90
2022-10-16T06:33:59.157Z,99.90
2022-10-16T06:36:27.065Z,99.90
2022-10-16T06:38:54.818Z,99.90
2022-10-16T06:41:23.979Z,99.90
2022-10-16T06:43:51.585Z,99.90
2022-10-16T06:46:22.216Z,99.90
2022-10-16T06:48:49.692Z,99.90
2022-10-16T06:51:26.503Z,99.90
2022-10-16T06:54:04.074Z,99.90
2022-10-16T06:56:33.915Z,99.90
2022-10-16T06:59:01.992Z,99.90
2022-10-16T07:01:29.806Z,99.90
2022-10-16T07:03:57.734Z,99.90
2022-10-16T07:06:26.558Z,99.90
2022-10-16T07:08:54.013Z,99.90
2022-10-16T07:11:23.274Z,99.90
2022-10-16T07:13:55.037Z,99.90
2022-10-16T07:16:29.072Z,99.90
2022-10-16T07:19:01.121Z,99.90
2022-10-16T07:21:31.380Z,99.90
2022-10-16T07:24:02.066Z,99.90
2022-10-16T07:26:32.051Z,99.90
2022-10-16T07:29:00.211Z,99.90
2022-10-16T07:31:28.279Z,99.90
2022-10-16T07:33:55.576Z,99.90
2022-10-16T07:36:22.927Z,99.90
2022-10-16T07:38:52.808Z,99.90
2022-10-16T07:41:22.893Z,99.90
2022-10-16T07:43:52.181Z,99.90
2022-10-16T07:46:20.725Z,99.90
2022-10-16T07:48:49.204Z,99.90
2022-10-16T07:51:25.133Z,99.90
2022-10-16T07:53:53.252Z,99.90
2022-10-16T07:56:22.011Z,99.90
2022-10-16T07:58:51.176Z,99.90
2022-10-16T08:01:20.050Z,99.90
2022-10-16T08:03:50.704Z,99.90
2022-10-16T08:06:25.205Z,99.90
2022-10-16T08:08:56.760Z,99.90
2022-10-16T08:11:24.513Z,99.90
2022-10-16T08:13:51.836Z,99.90
2022-10-16T08:16:19.403Z,99.90
2022-10-16T08:18:47.514Z,99.90
2022-10-16T08:21:20.360Z,99.90
2022-10-16T08:23:54.608Z,99.90
2022-10-16T08:26:29.127Z,99.90
2022-10-16T08:28:57.293Z,99.90
2022-10-16T08:31:25.005Z,99.90
2022-10-16T08:33:56.192Z,99.90
2022-10-16T08:36:24.413Z,99.90
2022-10-16T08:38:54.441Z,99.90
2022-10-16T08:41:37.131Z,99.90
2022-10-16T08:44:10.751Z,99.90
2022-10-16T08:46:58.140Z,99.90
2022-10-16T08:49:25.901Z,99.90
2022-10-16T08:51:53.367Z,99.90
2022-10-16T08:54:41.647Z,99.90
2022-10-16T08:57:15.621Z,99.90
2022-10-16T08:59:45.917Z,99.90
2022-10-16T09:02:38.791Z,99.90
2022-10-16T09:05:24.972Z,99.90
2022-10-16T09:08:10.842Z,99.90
2022-10-16T09:10:57.288Z,99.90
2022-10-16T09:13:50.001Z,99.90
2022-10-16T09:16:36.053Z,99.90
2022-10-16T09:19:28.074Z,99.90
2022-10-16T09:21:56.664Z,99.90
2022-10-16T09:24:27.108Z,99.90
2022-10-16T09:26:56.674Z,99.90
2022-10-16T09:29:26.937Z,99.90
2022-10-16T09:31:58.673Z,99.90
2022-10-16T09:34:33.786Z,99.90
2022-10-16T09:37:10.212Z,99.90
2022-10-16T09:39:47.802Z,99.90
2022-10-16T09:42:29.729Z,99.90
2022-10-16T09:44:58.276Z,99.90
2022-10-16T09:47:28.799Z,99.90
2022-10-16T09:50:07.112Z,99.90
2022-10-16T09:52:34.844Z,99.90
2022-10-16T09:55:13.436Z,99.90
2022-10-16T09:57:54.663Z,99.90
2022-10-16T10:00:23.800Z,99.90
2022-10-16T10:02:51.906Z,99.90
2022-10-16T10:05:28.965Z,99.90
2022-10-16T10:08:03.884Z,99.90
2022-10-16T10:10:34.213Z,99.90
2022-10-16T10:13:02.284Z,99.90
2022-10-16T10:15:35.682Z,99.90
2022-10-16T10:18:04.278Z,99.90
2022-10-16T10:20:39.085Z,99.90
2022-10-16T10:23:27.399Z,97.90
2022-10-16T10:26:10.941Z,95.30
2022-10-16T10:28:50.240Z,92.80
2022-10-16T10:31:35.528Z,90.40
2022-10-16T10:34:44.298Z,86.50
2022-10-16T10:37:31.720Z,82.00
2022-10-16T10:40:24.710Z,80.00
2022-10-16T10:43:00.397Z,78.10
2022-10-16T10:45:35.255Z,76.60
2022-10-16T10:48:22.348Z,76.40
2022-10-16T10:50:55.376Z,75.60
2022-10-16T10:53:26.101Z,74.00
2022-10-16T10:56:40.581Z,73.30
2022-10-16T10:59:45.411Z,73.90
2022-10-16T11:02:33.162Z,74.10
2022-10-16T11:05:09.121Z,75.20
2022-10-16T11:07:43.728Z,74.80
2022-10-16T11:10:18.245Z,73.70
2022-10-16T11:12:54.563Z,71.80
2022-10-16T11:15:34.792Z,69.20
2022-10-16T11:18:17.997Z,67.30
2022-10-16T11:20:52.048Z,66.40
2022-10-16T11:23:34.181Z,66.00
2022-10-16T11:26:07.672Z,66.30
2022-10-16T11:28:42.764Z,68.30
2022-10-16T11:31:30.077Z,71.30
2022-10-16T11:34:18.697Z,75.30
2022-10-16T11:36:57.673Z,78.70
2022-10-16T11:39:31.740Z,79.90
2022-10-16T11:42:17.970Z,81.30
2022-10-16T11:45:06.150Z,81.00
2022-10-16T11:47:58.072Z,82.30
2022-10-16T11:50:34.514Z,81.00
2022-10-16T11:53:04.768Z,81.00
2022-10-16T11:55:41.645Z,80.10
2022-10-16T11:58:14.731Z,82.00
2022-10-16T12:01:04.497Z,82.80
2022-10-16T12:03:43.466Z,81.50
2022-10-16T12:06:26.823Z,76.70
2022-10-16T12:08:55.204Z,75.60
2022-10-16T12:11:37.821Z,78.30
2022-10-16T12:14:28.165Z,81.50
2022-10-16T12:17:00.721Z,81.80
2022-10-16T12:19:30.234Z,84.00
2022-10-16T12:22:00.423Z,84.90
2022-10-16T12:24:41.913Z,86.90
2022-10-16T12:27:24.503Z,87.10
2022-10-16T12:29:58.069Z,85.80
2022-10-16T12:32:49.492Z,85.80
2022-10-16T12:35:29.452Z,86.70
2022-10-16T12:41:01.482Z,87.10
2022-10-16T12:43:40.154Z,89.80
2022-10-16T12:46:10.278Z,89.30
2022-10-16T12:48:49.205Z,89.80
2022-10-16T12:51:30.226Z,90.10
2022-10-16T12:54:03.610Z,90.40
2022-10-16T12:56:58.184Z,90.80
2022-10-16T12:59:25.442Z,91.10
2022-10-16T13:02:19.005Z,91.10
2022-10-16T13:04:55.606Z,91.10
2022-10-16T13:07:45.860Z,90.60
2022-10-16T13:10:21.137Z,91.00
2022-10-16T13:13:16.721Z,91.30
2022-10-16T13:15:59.604Z,91.40
2022-10-16T13:18:40.703Z,91.90
2022-10-16T13:21:26.531Z,92.50
2022-10-16T13:24:15.650Z,93.20
2022-10-16T13:27:00.976Z,93.10
2022-10-16T13:29:35.082Z,92.90
2022-10-16T13:32:10.369Z,93.10
2022-10-16T13:34:49.709Z,93.40
2022-10-16T13:37:26.349Z,93.60
2022-10-16T13:40:13.409Z,93.50
2022-10-16T13:42:41.489Z,93.50
2022-10-16T13:45:20.204Z,93.30
2022-10-16T13:47:47.578Z,93.60
2022-10-16T13:50:18.302Z,93.90
2022-10-16T13:52:46.118Z,93.70
2022-10-16T13:55:15.541Z,94.10
2022-10-16T13:57:43.693Z,94.40
2022-10-16T14:00:31.094Z,94.30
2022-10-16T14:03:18.834Z,94.60
2022-10-16T14:05:53.205Z,94.50
2022-10-16T14:08:20.870Z,95.10
2022-10-16T14:10:50.827Z,95.30
2022-10-16T14:13:40.162Z,94.90
2022-10-16T14:16:11.000Z,95.30
2022-10-16T14:18:41.013Z,95.20
2022-10-16T14:21:14.670Z,95.30
2022-10-16T14:23:43.454Z,95.40
2022-10-16T14:26:10.720Z,95.80
2022-10-16T14:28:41.246Z,97.00
2022-10-16T14:31:20.570Z,97.40
2022-10-16T14:33:48.014Z,97.10
2022-10-16T14:36:19.513Z,97.80
2022-10-16T14:38:59.951Z,98.00
2022-10-16T14:41:27.995Z,98.10
2022-10-16T14:43:58.446Z,97.90
2022-10-16T14:46:37.741Z,97.80
2022-10-16T14:49:10.647Z,98.80
2022-10-16T14:51:39.467Z,98.70
2022-10-16T14:54:09.153Z,99.00
2022-10-16T14:56:58.072Z,99.00
2022-10-16T14:59:37.475Z,99.20
2022-10-16T15:02:18.655Z,99.00
2022-10-16T15:04:46.099Z,99.50
2022-10-16T15:07:13.452Z,99.50
2022-10-16T15:09:43.776Z,99.80
2022-10-16T15:12:12.459Z,99.90
2022-10-16T15:14:39.953Z,99.90
2022-10-16T15:17:12.333Z,99.90
2022-10-16T15:19:39.670Z,99.90
2022-10-16T15:22:06.909Z,99.90
2022-10-16T15:24:34.374Z,99.90
2022-10-16T15:27:01.765Z,99.90
2022-10-16T15:29:29.064Z,99.90
2022-10-16T15:31:56.430Z,99.90
2022-10-16T15:34:23.803Z,99.90
2022-10-16T15:36:51.240Z,99.90
2022-10-16T15:39:20.548Z,99.90
2022-10-16T15:41:51.881Z,99.90
2022-10-16T15:44:19.636Z,99.90
2022-10-16T15:46:47.949Z,99.90
2022-10-16T15:49:18.385Z,99.90
2022-10-16T15:51:47.083Z,99.90
2022-10-16T15:54:14.592Z,99.90
2022-10-16T15:56:42.018Z,99.90
2022-10-16T15:59:09.416Z,99.90
2022-10-16T16:01:37.103Z,99.90
2022-10-16T16:04:10.908Z,99.90
2022-10-16T16:06:47.592Z,99.90
2022-10-16T16:09:15.424Z,99.90
2022-10-16T16:11:45.778Z,99.90
2022-10-16T16:14:14.789Z,99.90
2022-10-16T16:16:43.041Z,99.90
2022-10-16T16:19:11.729Z,99.90
2022-10-16T16:21:40.064Z,99.90
2022-10-16T16:24:09.203Z,99.90
2022-10-16T16:26:40.373Z,99.90
2022-10-16T16:29:08.253Z,99.90
2022-10-16T16:31:35.879Z,99.90
2022-10-16T16:34:06.721Z,99.90
2022-10-16T16:36:34.786Z,99.90
2022-10-16T16:39:02.657Z,99.90
2022-10-16T16:41:31.317Z,99.90
2022-10-16T16:44:09.085Z,99.90
2022-10-16T16:46:36.639Z,99.90
2022-10-16T16:49:04.533Z,99.90
2022-10-16T16:51:34.597Z,99.90
2022-10-16T16:54:03.151Z,99.90
2022-10-16T16:56:30.483Z,99.90
2022-10-16T16:58:59.951Z,99.90
2022-10-16T17:01:28.796Z,99.90
2022-10-16T17:03:58.155Z,99.90
2022-10-16T17:06:33.200Z,99.90
2022-10-16T17:09:03.663Z,99.90
2022-10-16T17:11:31.454Z,99.90
2022-10-16T17:14:00.541Z,99.90
2022-10-16T17:16:33.831Z,99.90
2022-10-16T17:19:05.201Z,99.90
2022-10-16T17:21:33.117Z,99.90
2022-10-16T17:24:01.408Z,99.90
2022-10-16T17:26:29.377Z,99.90
2022-10-16T17:28:59.254Z,99.90
2022-10-16T17:31:29.570Z,99.90
2022-10-16T17:33:58.749Z,99.90
2022-10-16T17:36:29.541Z,99.90
2022-10-16T17:39:04.652Z,99.90
2022-10-16T17:41:33.282Z,99.90
2022-10-16T17:44:05.444Z,99.90
2022-10-16T17:46:36.874Z,99.90
2022-10-16T17:49:07.508Z,99.90
2022-10-16T17:51:34.806Z,99.90
2022-10-16T17:54:02.628Z,99.90
2022-10-16T17:56:30.881Z,99.90
2022-10-16T17:59:00.319Z,99.90
2022-10-16T18:01:30.501Z,99.90
2022-10-16T18:04:00.676Z,99.90
2022-10-16T18:06:28.883Z,99.90
2022-10-16T18:08:58.255Z,99.90
2022-10-16T18:11:26.625Z,99.90
2022-10-16T18:13:58.557Z,99.90
2022-10-16T18:16:27.717Z,99.90
2022-10-16T18:18:57.158Z,99.90
2022-10-16T18:21:30.632Z,99.90
2022-10-16T18:23:59.515Z,99.90
2022-10-16T18:26:28.236Z,99.90
2022-10-16T18:28:57.499Z,99.90
2022-10-16T18:31:26.498Z,99.90
2022-10-16T18:33:55.781Z,99.90
2022-10-16T18:36:29.688Z,99.90
2022-10-16T18:38:57.515Z,99.90
2022-10-16T18:41:25.840Z,99.90
2022-10-16T18:43:53.713Z,99.90
2022-10-16T18:46:24.085Z,99.90
2022-10-16T18:48:54.342Z,99.90
2022-10-16T18:51:27.422Z,99.90
2022-10-16T18:54:06.014Z,99.90
2022-10-16T18:56:33.808Z,99.90
2022-10-16T18:59:02.536Z,99.90
2022-10-16T19:01:32.563Z,99.90
2022-10-16T19:04:08.332Z,99.90
2022-10-16T19:06:43.184Z,99.90
2022-10-16T19:09:11.828Z,99.90
2022-10-16T19:11:41.826Z,99.90
2022-10-16T19:14:14.276Z,99.90
2022-10-16T19:16:43.044Z,99.90
2022-10-16T19:19:14.744Z,99.90
2022-10-16T19:21:42.203Z,99.90
2022-10-16T19:24:16.216Z,99.90
2022-10-16T19:26:44.134Z,99.90
2022-10-16T19:29:12.296Z,99.90
2022-10-16T19:31:40.976Z,99.90
2022-10-16T19:34:10.645Z,99.90
2022-10-16T19:36:39.581Z,99.90
2022-10-16T19:39:17.622Z,99.90
2022-10-16T19:41:47.904Z,99.90
2022-10-16T19:44:17.067Z,99.90
2022-10-16T19:46:49.111Z,99.90
2022-10-16T19:49:20.898Z,99.90
2022-10-16T19:51:50.487Z,99.90
2022-10-16T19:54:18.338Z,99.90
2022-10-16T19:56:46.011Z,99.90
2022-10-16T19:59:16.657Z,99.90
2022-10-16T20:01:44.303Z,99.90
2022-10-16T20:04:13.002Z,99.90
2022-10-16T20:06:40.515Z,99.90
2022-10-16T20:09:09.141Z,99.90
2022-10-16T20:11:37.105Z,99.90
2022-10-16T20:14:05.337Z,99.90
2022-10-16T20:16:36.425Z,99.90
2022-10-16T20:19:04.392Z,99.90
2022-10-16T20:21:34.136Z,99.90
2022-10-16T20:24:05.005Z,99.90
2022-10-16T20:26:32.586Z,99.90
2022-10-16T20:28:59.978Z,99.90
2022-10-16T20:31:29.916Z,99.90
2022-10-16T20:33:58.756Z,99.90
2022-10-16T20:36:27.331Z,99.90
2022-10-16T20:38:54.606Z,99.90
2022-10-16T20:41:22.598Z,99.90
2022-10-16T20:43:51.263Z,99.90
2022-10-16T20:46:22.032Z,99.90
2022-10-16T20:48:49.808Z,99.90
2022-10-16T20:51:17.074Z,99.90
2022-10-16T20:53:46.669Z,99.90
2022-10-16T20:56:18.090Z,99.90
2022-10-16T20:58:46.168Z,99.90
2022-10-16T21:01:19.815Z,99.90
2022-10-16T21:03:52.896Z,99.90
2022-10-16T21:06:20.640Z,99.90
2022-10-16T21:08:48.603Z,99.90
2022-10-16T21:11:20.936Z,99.90
2022-10-16T21:13:48.369Z,99.90
2022-10-16T21:16:15.882Z,99.90
2022-10-16T21:18:44.822Z,99.90
2022-10-16T21:21:30.101Z,99.90
2022-10-16T21:23:58.966Z,99.90
2022-10-16T21:26:27.691Z,99.90
2022-10-16T21:29:00.743Z,99.90
2022-10-16T21:31:31.077Z,99.90
2022-10-16T21:33:58.706Z,99.90
2022-10-16T21:36:28.522Z,99.90
2022-10-16T21:38:56.571Z,99.90
2022-10-16T21:41:26.931Z,99.90
2022-10-16T21:43:55.316Z,99.90
2022-10-16T21:46:25.185Z,99.90
2022-10-16T21:48:57.141Z,99.90
2022-10-16T21:51:33.945Z,99.90
2022-10-16T21:54:03.236Z,99.90
2022-10-16T21:56:30.969Z,99.90
2022-10-16T21:58:58.827Z,99.90
2022-10-16T22:01:27.307Z,99.90
2022-10-16T22:03:55.273Z,99.90
2022-10-16T22:06:24.710Z,99.90
2022-10-16T22:08:54.040Z,99.90
2022-10-16T22:11:26.211Z,99.90
2022-10-16T22:13:56.636Z,99.90
2022-10-16T22:16:25.974Z,99.90
2022-10-16T22:18:54.886Z,99.90
2022-10-16T22:21:22.784Z,99.90
2022-10-16T22:23:50.173Z,99.90
2022-10-16T22:26:17.476Z,99.90
2022-10-16T22:28:44.832Z,99.90
2022-10-16T22:31:16.440Z,99.90
2022-10-16T22:33:44.258Z,99.90
2022-10-16T22:36:13.972Z,99.90
2022-10-16T22:38:41.976Z,99.90
2022-10-16T22:41:12.867Z,99.90
2022-10-16T22:43:43.942Z,99.90
2022-10-16T22:46:13.932Z,99.90
2022-10-16T22:48:41.676Z,99.90
2022-10-16T22:51:14.360Z,99.90
2022-10-16T22:53:45.905Z,99.90
2022-10-16T22:56:14.702Z,99.90
2022-10-16T22:58:42.645Z,99.90
2022-10-16T23:01:16.232Z,99.90
2022-10-16T23:03:43.817Z,99.90
2022-10-16T23:06:11.514Z,99.90
2022-10-16T23:08:38.949Z,99.90
2022-10-16T23:11:10.832Z,99.90
2022-10-16T23:13:39.630Z,99.90
2022-10-16T23:16:07.874Z,99.90
2022-10-16T23:18:35.164Z,99.90
2022-10-16T23:21:14.125Z,99.90
2022-10-16T23:23:42.654Z,99.90
2022-10-16T23:26:15.299Z,99.90
2022-10-16T23:28:43.025Z,99.90
2022-10-16T23:31:11.786Z,99.90
2022-10-16T23:33:39.777Z,99.90
2022-10-16T23:36:13.394Z,99.90
2022-10-16T23:38:41.060Z,99.90
2022-10-16T23:41:08.744Z,99.90
2022-10-16T23:43:36.192Z,99.90
2022-10-16T23:46:04.407Z,99.90
2022-10-16T23:48:31.831Z,99.90
2022-10-16T23:50:59.145Z,99.90
2022-10-16T23:53:26.611Z,99.90
2022-10-16T23:55:54.007Z,99.90
2022-10-16T23:58:21.664Z,99.90
